< Typhoon 199212 1992 Season Typhoon 199214 >
Typhoon 199213 (NINA)
General InformationTrack Information on Google MapsDetailed Wind InformationList of All Images || Disaster Info.ResourceGoogle EarthGE AnimationAtom FeedGeoJSON
Detalied Best Track (Time Zone = UTC)
Year Month Day Hour Lat. Long. Pressure (hPa) Wind (kt) Class Image Chart
1992 8 17 06 25.0 161.0 1008 0 2 Image Chart
1992 8 17 12 25.0 160.5 1008 0 2 Image Chart
1992 8 17 18 25.5 160.0 1008 0 2 Image Chart
1992 8 18 00 25.5 159.5 1008 0 2 Image Chart
1992 8 18 06 25.8 158.8 1006 0 2 Image Chart
1992 8 18 12 26.1 158.4 1006 0 2 Image Chart
1992 8 18 18 26.5 158.2 1006 0 2 Image Chart
1992 8 19 00 27.6 157.7 1006 0 2 Image Chart
1992 8 19 06 28.4 157.3 1004 0 2 Image Chart
1992 8 19 12 30.0 156.5 1000 35 3 Image Chart
1992 8 19 18 31.3 155.6 1000 35 3 Image Chart
1992 8 20 00 33.2 155.5 998 35 3 Image Chart
1992 8 20 06 35.1 155.9 998 35 3 Image Chart
1992 8 20 12 36.8 156.9 996 35 3 Image Chart
1992 8 20 18 38.6 158.8 996 35 3 Image Chart
1992 8 21 00 39.5 161.4 996 35 3 Image Chart
1992 8 21 06 39.9 164.8 998 35 3 Image Chart
1992 8 21 12 40.0 169.0 1000 35 3 Image Chart
1992 8 21 18 40.0 173.0 1004 0 6 Image Chart
1992 8 22 00 40.5 177.5 1006 0 6 Image Chart
1992 8 22 06 41.0 182.0 1008 0 6 Image Chart
Japan Meteorological Agency Best Track Data | Correction Date : 1992-12-25
< Typhoon 199212 1992 Season Typhoon 199214 >

Help